Time;durP1;ratioP1;P1;durP2;ratioP2;P2;SDS_P1;SDS_P2;PMS_P1;PMS_P2;Temp;Humidity;BMP_temperature;BMP_pressure;BME280_temperature;BME280_humidity;BME280_pressure;Samples;Min_cycle;Max_cycle;Signal;HPM_P1;HPM_P2
2024/02/01 00:00:57;;;;;;;61.88;33.05;;;;;;;1.64;52.01;95771.44;4154612;28;20080;-70
2024/02/01 00:02:59;;;;;;;64.10;34.35;;;;;;;1.61;52.21;95769.03;4170478;28;20476;-69
2024/02/01 00:05:00;;;;;;;64.82;35.67;;;;;;;1.64;51.98;95765.44;4172585;28;20075;-70
2024/02/01 00:07:03;;;;;;;70.60;37.33;;;;;;;1.62;51.88;95768.09;4180591;28;20048;-70
2024/02/01 00:09:05;;;;;;;69.50;37.58;;;;;;;1.64;52.18;95770.59;4175896;28;20132;-67
2024/02/01 00:11:07;;;;;;;67.45;36.03;;;;;;;1.67;52.15;95774.78;4175255;28;20057;-69
2024/02/01 00:13:09;;;;;;;70.85;37.80;;;;;;;1.67;52.37;95772.19;4180717;28;20041;-69
2024/02/01 00:15:13;;;;;;;74.50;38.10;;;;;;;1.60;52.15;95772.50;4179387;28;20352;-70
2024/02/01 00:17:15;;;;;;;74.40;39.10;;;;;;;1.59;52.25;95770.84;4180809;28;20049;-67
2024/02/01 00:19:16;;;;;;;71.43;41.55;;;;;;;1.64;51.72;95771.44;4176493;28;20053;-69
2024/02/01 00:21:18;;;;;;;76.07;42.38;;;;;;;1.60;52.23;95762.16;4168372;28;20049;-69
2024/02/01 00:23:20;;;;;;;73.55;41.28;;;;;;;1.57;52.10;95756.31;4170353;28;20140;-70
2024/02/01 00:25:22;;;;;;;75.85;40.28;;;;;;;1.53;52.34;95766.00;4181895;28;20048;-68
2024/02/01 00:27:24;;;;;;;70.97;39.20;;;;;;;1.45;52.53;95767.28;4174239;28;20048;-70
2024/02/01 00:29:26;;;;;;;66.22;36.80;;;;;;;1.40;52.72;95763.19;4181453;28;20087;-69
2024/02/01 00:31:28;;;;;;;73.53;39.28;;;;;;;1.33;52.95;95763.56;4179053;28;20044;-67
2024/02/01 00:33:30;;;;;;;79.03;40.05;;;;;;;1.34;52.92;95760.09;4163888;28;20046;-67
2024/02/01 00:35:33;;;;;;;68.88;39.78;;;;;;;1.40;52.65;95757.19;4166614;28;20053;-69
2024/02/01 00:37:35;;;;;;;78.50;39.58;;;;;;;1.37;52.58;95750.41;4183369;28;20459;-68
2024/02/01 00:39:37;;;;;;;69.15;39.70;;;;;;;1.45;52.43;95750.03;4159621;28;20053;-71
2024/02/01 00:41:39;;;;;;;78.18;38.85;;;;;;;1.47;52.09;95753.38;4191679;28;20049;-70
2024/02/01 00:43:40;;;;;;;68.78;34.35;;;;;;;1.43;51.96;95757.03;4181377;28;20052;-68
2024/02/01 00:45:42;;;;;;;64.95;36.25;;;;;;;1.29;52.06;95760.31;4179392;28;20152;-67
2024/02/01 00:47:48;;;;;;;65.78;35.17;;;;;;;1.20;52.11;95760.75;4190730;28;20496;-68
2024/02/01 00:49:50;;;;;;;71.47;37.60;;;;;;;1.15;52.75;95753.25;4180303;28;20131;-70
2024/02/01 00:51:52;;;;;;;70.00;36.85;;;;;;;1.22;52.43;95757.19;4181639;28;20068;-69
2024/02/01 00:53:53;;;;;;;79.50;38.67;;;;;;;1.24;52.83;95759.69;4179776;28;20075;-68
2024/02/01 00:55:56;;;;;;;68.40;34.85;;;;;;;1.22;52.63;95757.19;4195839;28;20075;-70
2024/02/01 00:57:58;;;;;;;73.38;35.97;;;;;;;1.14;52.22;95750.72;4180435;28;20155;-69
2024/02/01 00:59:59;;;;;;;70.97;35.97;;;;;;;1.15;52.61;95762.75;4181598;28;20057;-68
2024/02/01 01:02:01;;;;;;;72.75;34.50;;;;;;;1.21;52.21;95763.25;4179736;28;20609;-70
2024/02/01 01:04:03;;;;;;;70.00;37.65;;;;;;;1.23;52.86;95758.03;4179046;28;20094;-67
2024/02/01 01:06:05;;;;;;;65.85;36.75;;;;;;;1.24;52.62;95757.09;4181492;28;20045;-70
2024/02/01 01:08:07;;;;;;;71.85;36.63;;;;;;;1.26;52.45;95749.31;4181030;28;20056;-69
2024/02/01 01:10:09;;;;;;;64.60;35.13;;;;;;;1.27;52.39;95756.97;4180752;28;20546;-70
2024/02/01 01:12:11;;;;;;;75.65;38.42;;;;;;;1.26;52.43;95746.72;4184217;28;20496;-69
2024/02/01 01:14:13;;;;;;;61.78;33.42;;;;;;;1.18;52.41;95745.38;4176096;28;20065;-69
2024/02/01 01:16:15;;;;;;;60.05;32.92;;;;;;;1.15;52.45;95742.91;4177520;28;20112;-71
2024/02/01 01:18:16;;;;;;;70.72;34.08;;;;;;;1.13;52.29;95737.00;4171539;28;20218;-68
2024/02/01 01:20:18;;;;;;;60.58;33.25;;;;;;;1.18;52.58;95736.75;4177018;28;20076;-69
2024/02/01 01:22:21;;;;;;;59.50;33.95;;;;;;;1.18;52.72;95723.84;4181117;28;20045;-69
2024/02/01 01:24:23;;;;;;;64.53;34.00;;;;;;;1.18;52.65;95726.44;4179087;28;20606;-68
2024/02/01 01:26:25;;;;;;;72.68;35.72;;;;;;;1.12;53.43;95726.75;4178627;28;20118;-71
2024/02/01 01:28:28;;;;;;;67.63;34.10;;;;;;;1.06;53.69;95725.31;4177494;28;20045;-69
2024/02/01 01:30:29;;;;;;;62.63;34.33;;;;;;;1.07;53.65;95728.72;4178148;28;20052;-69
2024/02/01 01:32:32;;;;;;;48.35;27.38;;;;;;;1.07;52.98;95726.97;4179945;28;20055;-69
2024/02/01 01:34:34;;;;;;;39.95;25.30;;;;;;;1.00;53.42;95717.88;4176093;28;20519;-68
2024/02/01 01:36:35;;;;;;;49.92;25.60;;;;;;;1.02;53.27;95721.22;4177215;28;20442;-69
2024/02/01 01:38:37;;;;;;;59.58;32.15;;;;;;;1.00;53.49;95713.53;4180115;28;20080;-70
2024/02/01 01:40:39;;;;;;;62.38;31.95;;;;;;;1.07;53.46;95719.22;4178130;28;20049;-66
2024/02/01 01:42:47;;;;;;;60.38;29.98;;;;;;;1.07;53.60;95719.22;4182155;28;20136;-70
2024/02/01 01:44:49;;;;;;;56.20;29.92;;;;;;;1.05;53.52;95720.22;4176516;28;20148;-68
2024/02/01 01:46:50;;;;;;;62.45;33.90;;;;;;;0.97;53.19;95707.72;4172086;28;20045;-68
2024/02/01 01:48:52;;;;;;;63.25;35.33;;;;;;;0.97;53.45;95720.63;4178981;28;20060;-67
2024/02/01 01:50:55;;;;;;;64.13;35.70;;;;;;;0.93;53.75;95712.19;4178161;28;20067;-69
2024/02/01 01:52:57;;;;;;;62.50;33.45;;;;;;;0.91;53.67;95719.16;4176964;28;20045;-69
2024/02/01 01:54:59;;;;;;;60.00;33.38;;;;;;;0.92;53.89;95709.69;4178680;28;20456;-68
2024/02/01 01:57:02;;;;;;;51.20;30.23;;;;;;;0.94;53.64;95713.84;4176068;28;20044;-69
2024/02/01 01:59:05;;;;;;;57.97;29.40;;;;;;;0.99;53.92;95716.19;4177180;28;20092;-68
2024/02/01 02:01:08;;;;;;;54.92;31.35;;;;;;;1.01;53.67;95711.78;4165031;28;20081;-70
2024/02/01 02:03:10;;;;;;;54.67;28.67;;;;;;;1.01;53.47;95714.38;4183635;28;20119;-70
2024/02/01 02:05:12;;;;;;;56.58;30.55;;;;;;;0.97;53.82;95712.88;4157810;28;20355;-69
2024/02/01 02:07:14;;;;;;;61.78;31.67;;;;;;;0.97;53.69;95710.31;4173630;28;20064;-67
2024/02/01 02:09:16;;;;;;;62.58;31.83;;;;;;;0.99;53.70;95705.88;4175877;28;20396;-69
2024/02/01 02:11:19;;;;;;;60.85;28.92;;;;;;;1.02;53.62;95695.41;4183133;28;20147;-71
2024/02/01 02:13:21;;;;;;;59.33;31.05;;;;;;;1.06;53.72;95701.25;4177923;28;20132;-68
2024/02/01 02:15:23;;;;;;;56.30;29.85;;;;;;;0.99;53.74;95700.72;4178465;28;20586;-69
2024/02/01 02:17:28;;;;;;;49.33;29.27;;;;;;;0.97;53.85;95697.41;4174456;28;20151;-67
2024/02/01 02:19:30;;;;;;;49.25;29.23;;;;;;;0.94;53.90;95700.13;4177713;28;20151;-70
2024/02/01 02:21:32;;;;;;;58.60;29.45;;;;;;;0.94;53.93;95700.13;4171584;28;20132;-68
2024/02/01 02:23:34;;;;;;;58.67;32.00;;;;;;;0.76;54.39;95694.94;4161549;28;20385;-70
2024/02/01 02:25:37;;;;;;;51.88;30.80;;;;;;;0.67;54.60;95698.00;4180112;28;20123;-67
2024/02/01 02:27:42;;;;;;;54.33;30.63;;;;;;;0.67;54.48;95694.56;4169959;28;20045;-68
2024/02/01 02:29:44;;;;;;;54.45;33.63;;;;;;;0.62;55.07;95697.34;4177018;28;20045;-69
2024/02/01 02:31:46;;;;;;;64.38;34.13;;;;;;;0.55;54.65;95698.56;4176135;28;20088;-69
2024/02/01 02:33:48;;;;;;;60.55;35.00;;;;;;;0.51;54.83;95700.47;4174875;28;20491;-70
2024/02/01 02:35:50;;;;;;;57.85;32.60;;;;;;;0.52;54.86;95701.31;4188395;28;20521;-68
2024/02/01 02:37:52;;;;;;;64.50;35.03;;;;;;;0.48;54.45;95695.47;4174468;28;20496;-69
2024/02/01 02:39:54;;;;;;;58.08;35.47;;;;;;;0.50;54.44;95693.66;4167157;28;20065;-68
2024/02/01 02:41:56;;;;;;;61.42;35.05;;;;;;;0.40;54.57;95695.81;4175875;28;20140;-68
2024/02/01 02:44:00;;;;;;;78.60;46.65;;;;;;;0.12;54.72;95698.84;4182304;28;20091;-69
2024/02/01 02:46:03;;;;;;;94.50;54.20;;;;;;;-0.70;57.21;95698.25;4164379;28;20531;-68
2024/02/01 02:48:06;;;;;;;91.95;54.03;;;;;;;-0.74;58.18;95694.16;4178321;28;20045;-68
2024/02/01 02:50:08;;;;;;;94.68;52.28;;;;;;;-0.72;58.66;95697.50;4176343;28;20071;-67
2024/02/01 02:52:10;;;;;;;83.82;50.38;;;;;;;-0.56;58.42;95695.94;4183858;28;20041;-68
2024/02/01 02:54:12;;;;;;;91.90;52.17;;;;;;;-0.39;57.89;95682.28;4189083;28;20093;-69
2024/02/01 02:56:14;;;;;;;94.82;52.13;;;;;;;-0.17;57.33;95682.19;4185834;28;20473;-68
2024/02/01 02:58:16;;;;;;;96.80;51.63;;;;;;;0.05;56.67;95686.34;4183841;28;20128;-68
2024/02/01 03:00:21;;;;;;;86.35;47.40;;;;;;;0.22;56.08;95678.66;4176602;28;20736;-70
2024/02/01 03:02:22;;;;;;;79.15;45.17;;;;;;;0.32;55.77;95679.91;4166580;28;20049;-68
2024/02/01 03:04:24;;;;;;;90.20;49.13;;;;;;;0.43;55.56;95665.63;4177677;28;20061;-68
2024/02/01 03:06:26;;;;;;;86.95;48.55;;;;;;;0.50;55.69;95674.78;4178659;28;20080;-67
2024/02/01 03:08:28;;;;;;;92.50;52.08;;;;;;;0.55;54.95;95677.94;4174204;28;20102;-69
2024/02/01 03:10:31;;;;;;;94.80;51.83;;;;;;;0.51;55.02;95668.69;4175967;28;20110;-68
2024/02/01 03:12:33;;;;;;;92.07;51.35;;;;;;;0.48;55.32;95666.28;4178983;28;20091;-68
2024/02/01 03:14:40;;;;;;;84.70;50.70;;;;;;;0.47;55.38;95668.00;4177681;28;20071;-69
2024/02/01 03:16:42;;;;;;;88.78;50.70;;;;;;;0.51;55.39;95668.69;4180054;28;21421;-69
2024/02/01 03:18:48;;;;;;;87.07;50.45;;;;;;;0.51;54.93;95669.50;4183769;28;20048;-67
2024/02/01 03:20:51;;;;;;;88.32;49.75;;;;;;;0.53;54.94;95670.28;4175914;28;20091;-69
2024/02/01 03:22:56;;;;;;;81.07;48.10;;;;;;;0.55;55.31;95667.63;4186231;28;20048;-66
2024/02/01 03:24:58;;;;;;;82.30;47.58;;;;;;;0.58;54.85;95665.75;4180034;28;20045;-68
2024/02/01 03:27:07;;;;;;;77.53;45.80;;;;;;;0.55;55.23;95662.47;4181233;28;20407;-68
2024/02/01 03:29:15;;;;;;;80.75;47.38;;;;;;;0.52;55.63;95667.78;4174791;28;20138;-68
2024/02/01 03:31:18;;;;;;;82.65;45.80;;;;;;;0.49;55.33;95670.50;4174687;28;20048;-70
2024/02/01 03:33:22;;;;;;;75.57;44.97;;;;;;;0.45;55.36;95663.81;4177110;28;20053;-69
2024/02/01 03:35:24;;;;;;;88.32;44.67;;;;;;;0.37;55.62;95661.63;4176097;28;20072;-68
2024/02/01 03:37:27;;;;;;;80.90;43.85;;;;;;;0.33;55.83;95663.50;4177331;28;20049;-69
2024/02/01 03:39:31;;;;;;;75.82;43.35;;;;;;;0.23;55.92;95662.28;4190421;28;20063;-69
2024/02/01 03:41:33;;;;;;;81.68;45.55;;;;;;;0.24;56.24;95658.81;4178975;28;20075;-69
2024/02/01 03:43:35;;;;;;;77.78;43.55;;;;;;;0.31;55.69;95649.03;4158370;28;20081;-69
2024/02/01 03:45:38;;;;;;;76.35;44.00;;;;;;;0.30;55.48;95653.38;4178679;28;20053;-69
2024/02/01 03:47:41;;;;;;;86.65;45.70;;;;;;;0.33;55.67;95650.63;4175803;28;20059;-68
2024/02/01 03:49:43;;;;;;;72.75;44.25;;;;;;;0.33;55.91;95653.19;4191285;28;20423;-69
2024/02/01 03:51:45;;;;;;;76.32;44.35;;;;;;;0.36;55.59;95650.47;4164311;28;20398;-68
2024/02/01 03:53:47;;;;;;;79.97;44.13;;;;;;;0.30;55.89;95649.94;4175060;28;20055;-69
2024/02/01 03:55:49;;;;;;;75.35;42.95;;;;;;;0.39;55.83;95649.50;4175083;28;20518;-70
2024/02/01 03:57:51;;;;;;;85.50;42.38;;;;;;;0.37;55.37;95654.72;4173581;28;20052;-69
2024/02/01 03:59:53;;;;;;;79.43;45.53;;;;;;;0.42;55.65;95648.53;4175564;28;20084;-69
2024/02/01 04:01:55;;;;;;;74.32;43.90;;;;;;;0.42;55.33;95653.69;4172219;28;20048;-68
2024/02/01 04:03:57;;;;;;;79.38;45.10;;;;;;;0.40;56.17;95652.00;4171000;28;20403;-69
2024/02/01 04:06:00;;;;;;;76.60;44.40;;;;;;;0.38;55.97;95648.66;4174918;28;20091;-66
2024/02/01 04:08:06;;;;;;;80.93;46.10;;;;;;;0.38;55.67;95643.50;4177044;28;20061;-69
2024/02/01 04:10:09;;;;;;;81.07;45.47;;;;;;;0.39;55.84;95645.19;4172732;28;20057;-69
2024/02/01 04:12:12;;;;;;;76.68;45.05;;;;;;;0.44;55.63;95646.69;4177411;28;20388;-71
2024/02/01 04:14:14;;;;;;;73.28;43.38;;;;;;;0.40;55.78;95638.28;4175991;28;20088;-69
2024/02/01 04:16:17;;;;;;;74.72;45.60;;;;;;;0.42;55.33;95640.78;4180994;28;20137;-69
2024/02/01 04:18:19;;;;;;;80.53;44.60;;;;;;;0.44;55.58;95641.53;4186731;28;20097;-69
2024/02/01 04:20:21;;;;;;;82.05;47.38;;;;;;;0.41;55.49;95645.13;4177547;28;20144;-69
2024/02/01 04:22:22;;;;;;;91.00;50.75;;;;;;;0.18;55.59;95657.34;4181922;28;20128;-67
2024/02/01 04:24:24;;;;;;;98.00;55.40;;;;;;;-0.50;57.13;95651.88;4181547;28;20049;-70
2024/02/01 04:26:26;;;;;;;103.35;56.53;;;;;;;-0.88;58.83;95654.41;4179388;28;20052;-69
2024/02/01 04:28:28;;;;;;;102.88;57.03;;;;;;;-1.24;60.05;95655.06;4182583;28;20076;-68
2024/02/01 04:30:30;;;;;;;95.60;56.35;;;;;;;-1.62;61.20;95653.25;4171485;28;20049;-68
2024/02/01 04:32:32;;;;;;;96.75;57.55;;;;;;;-2.08;63.09;95655.91;4177393;28;20099;-68
2024/02/01 04:34:34;;;;;;;101.85;56.20;;;;;;;-2.24;63.78;95662.50;4177497;28;20092;-68
2024/02/01 04:36:36;;;;;;;107.18;57.80;;;;;;;-2.34;64.21;95656.91;4177144;28;20072;-67
2024/02/01 04:38:39;;;;;;;101.30;54.78;;;;;;;-2.17;64.23;95659.66;4170544;28;20048;-69
2024/02/01 04:40:44;;;;;;;102.82;54.40;;;;;;;-2.13;63.67;95656.09;4173765;28;20574;-67
2024/02/01 04:42:51;;;;;;;89.43;51.15;;;;;;;-1.87;64.10;95651.66;4179330;28;20049;-70
2024/02/01 04:44:57;;;;;;;96.70;53.45;;;;;;;-1.50;62.96;95640.72;4172022;28;20068;-68
2024/02/01 04:47:00;;;;;;;93.10;53.88;;;;;;;-1.27;61.84;95644.06;4179157;28;20067;-68
2024/02/01 04:49:11;;;;;;;95.65;52.00;;;;;;;-1.02;61.10;95641.31;4174998;28;20483;-67
2024/02/01 04:51:13;;;;;;;88.65;52.10;;;;;;;-0.80;59.98;95636.06;4186122;28;20485;-69
2024/02/01 04:53:15;;;;;;;86.00;49.05;;;;;;;-0.53;60.25;95633.19;4174519;28;20049;-69
2024/02/01 04:55:17;;;;;;;99.30;52.75;;;;;;;-0.33;59.66;95630.53;4158178;28;20085;-70
2024/02/01 04:57:20;;;;;;;95.90;52.72;;;;;;;-0.24;58.79;95629.25;4176739;28;20545;-68
2024/02/01 04:59:22;;;;;;;91.55;53.47;;;;;;;-0.18;58.50;95630.72;4175250;28;20072;-69
2024/02/01 05:01:25;;;;;;;97.03;54.67;;;;;;;-0.21;58.49;95629.97;4198647;28;20098;-70
2024/02/01 05:03:27;;;;;;;93.70;53.50;;;;;;;-0.22;58.15;95633.44;4177177;28;20052;-68
2024/02/01 05:05:30;;;;;;;93.65;53.08;;;;;;;-0.15;58.14;95638.31;4176662;28;20497;-69
2024/02/01 05:07:33;;;;;;;91.20;54.08;;;;;;;-0.20;58.36;95633.38;4179696;28;20511;-69
2024/02/01 05:09:36;;;;;;;102.38;55.80;;;;;;;-0.19;58.19;95634.19;4168688;28;20064;-69
2024/02/01 05:11:38;;;;;;;96.43;55.13;;;;;;;-0.25;58.02;95632.75;4163005;28;20045;-70
2024/02/01 05:13:39;;;;;;;98.68;53.97;;;;;;;-0.26;58.14;95641.38;4180497;28;20139;-69
2024/02/01 05:15:46;;;;;;;93.47;54.22;;;;;;;-0.24;58.09;95639.56;4187372;28;20150;-67
2024/02/01 05:17:48;;;;;;;99.28;52.63;;;;;;;-0.22;58.04;95637.75;4175435;28;20045;-70
2024/02/01 05:19:50;;;;;;;98.65;54.17;;;;;;;-0.15;58.09;95636.59;4177857;28;20079;-69
2024/02/01 05:21:53;;;;;;;104.03;54.70;;;;;;;-0.10;57.22;95639.78;4161887;28;20492;-69
2024/02/01 05:23:55;;;;;;;103.28;52.72;;;;;;;-0.06;57.52;95632.75;4187652;28;20152;-71
2024/02/01 05:25:57;;;;;;;106.82;52.58;;;;;;;-0.10;57.29;95632.03;4189803;28;20063;-69
2024/02/01 05:27:58;;;;;;;88.32;49.95;;;;;;;-0.17;57.10;95640.13;4179538;28;20071;-70
2024/02/01 05:30:00;;;;;;;88.63;51.03;;;;;;;-0.38;57.51;95629.09;4175414;28;20060;-69
2024/02/01 05:32:06;;;;;;;94.25;53.10;;;;;;;-0.93;58.46;95629.78;4177385;28;20060;-69
2024/02/01 05:34:10;;;;;;;93.80;53.88;;;;;;;-1.14;59.45;95631.53;4176103;28;20522;-70
2024/02/01 05:36:12;;;;;;;92.32;52.65;;;;;;;-1.21;59.76;95636.09;4159716;28;20065;-70
2024/02/01 05:38:14;;;;;;;96.15;53.33;;;;;;;-1.18;60.17;95630.00;4193484;28;20056;-70
2024/02/01 05:40:18;;;;;;;90.13;50.78;;;;;;;-1.34;60.23;95624.66;4176510;28;20045;-68
2024/02/01 05:42:20;;;;;;;93.60;51.88;;;;;;;-1.29;60.59;95628.72;4177803;28;20472;-69
2024/02/01 05:44:23;;;;;;;94.15;52.45;;;;;;;-1.15;59.97;95629.88;4165377;28;20088;-71
2024/02/01 05:46:25;;;;;;;87.47;49.70;;;;;;;-0.98;59.44;95619.69;4179458;28;20676;-71
2024/02/01 05:48:27;;;;;;;89.88;50.22;;;;;;;-0.87;58.81;95635.50;4182393;28;20076;-71
2024/02/01 05:50:30;;;;;;;93.70;51.33;;;;;;;-0.81;58.72;95620.72;4180786;28;20049;-71
2024/02/01 05:52:39;;;;;;;92.05;50.15;;;;;;;-0.81;58.42;95625.84;4190764;28;20106;-70
2024/02/01 05:54:40;;;;;;;96.88;53.85;;;;;;;-0.80;58.39;95633.47;4179095;28;20059;-70
2024/02/01 05:56:44;;;;;;;103.13;55.47;;;;;;;-0.75;59.96;95631.56;4184668;28;20080;-71
2024/02/01 05:58:46;;;;;;;98.93;53.40;;;;;;;-0.83;59.21;95642.19;4186035;28;20048;-71
2024/02/01 06:00:48;;;;;;;96.25;52.92;;;;;;;-1.51;60.11;95646.75;4164117;28;20115;-70
2024/02/01 06:02:50;;;;;;;91.70;50.50;;;;;;;-1.63;60.44;95651.56;4185014;28;20056;-72
2024/02/01 06:04:52;;;;;;;92.40;48.35;;;;;;;-1.69;60.73;95656.06;4180250;28;20045;-71
2024/02/01 06:06:54;;;;;;;105.60;53.13;;;;;;;-1.79;61.37;95654.75;4188642;28;20044;-71
2024/02/01 06:08:57;;;;;;;94.57;50.60;;;;;;;-1.61;61.40;95652.34;4194667;28;20145;-72
2024/02/01 06:10:59;;;;;;;86.82;48.13;;;;;;;-1.33;60.90;95652.06;4182384;28;20049;-68
2024/02/01 06:13:01;;;;;;;89.75;48.28;;;;;;;-1.09;60.00;95648.44;4174292;28;20547;-70
2024/02/01 06:15:05;;;;;;;81.63;46.05;;;;;;;-0.87;58.99;95648.34;4192257;28;20060;-70
2024/02/01 06:17:07;;;;;;;78.68;43.72;;;;;;;-0.89;58.09;95647.59;4172471;28;20527;-70
2024/02/01 06:19:08;;;;;;;74.47;40.38;;;;;;;-0.95;58.00;95652.16;4198748;28;20047;-71
2024/02/01 06:21:17;;;;;;;58.42;36.47;;;;;;;-0.79;59.89;95647.22;4179133;28;20456;-71
2024/02/01 06:23:19;;;;;;;66.78;39.47;;;;;;;-0.63;58.57;95645.59;4178980;28;20099;-70
2024/02/01 06:25:21;;;;;;;61.38;37.05;;;;;;;-0.50;57.66;95643.31;4175619;28;20048;-71
2024/02/01 06:27:22;;;;;;;66.30;36.25;;;;;;;-0.42;56.71;95642.06;4183799;28;20053;-70
2024/02/01 06:29:25;;;;;;;58.92;36.42;;;;;;;-0.30;56.37;95635.56;4184494;28;20079;-70
2024/02/01 06:31:27;;;;;;;65.03;35.15;;;;;;;-0.18;56.53;95633.31;4164774;28;20077;-69
2024/02/01 06:33:29;;;;;;;66.70;37.97;;;;;;;-0.07;55.80;95634.47;4183875;28;20456;-71
2024/02/01 06:35:33;;;;;;;67.85;43.78;;;;;;;0.06;55.94;95637.31;4180130;28;20048;-69
2024/02/01 06:37:39;;;;;;;72.88;43.85;;;;;;;0.19;55.86;95627.25;4177415;28;20136;-69
2024/02/01 06:40:37;;;;;;;66.22;39.17;;;;;;;0.25;55.73;95624.38;4177472;28;20499;-71
2024/02/01 06:42:14;;;;;;;58.97;38.30;;;;;;;0.42;55.74;95628.72;4169981;28;20056;-68
2024/02/01 06:44:26;;;;;;;64.25;38.60;;;;;;;0.54;55.52;95628.13;4175750;28;20049;-70
2024/02/01 06:46:49;;;;;;;74.80;41.92;;;;;;;0.68;54.84;95613.72;4188529;28;20095;-71
2024/02/01 06:49:11;;;;;;;74.45;41.60;;;;;;;0.73;54.82;95620.31;4175670;28;20058;-72
2024/02/01 06:51:25;;;;;;;88.15;48.17;;;;;;;0.92;55.01;95620.22;4179505;28;20456;-70
2024/02/01 06:53:37;;;;;;;77.78;47.85;;;;;;;0.97;54.41;95614.84;4177635;28;20101;-70
2024/02/01 06:55:44;;;;;;;82.38;50.10;;;;;;;1.00;54.34;95606.94;4170979;28;20048;-71
2024/02/01 06:58:03;;;;;;;83.25;49.30;;;;;;;1.11;54.73;95614.13;4174943;28;20053;-71
2024/02/01 07:04:41;;;;;;;80.40;46.50;;;;;;;1.31;54.24;95603.59;4178699;28;20057;-70
2024/02/01 07:07:05;;;;;;;96.03;48.78;;;;;;;1.39;54.51;95608.34;4187601;28;20048;-69
2024/02/01 07:09:27;;;;;;;83.38;48.20;;;;;;;1.46;53.42;95604.50;4176713;28;20537;-72
2024/02/01 07:11:30;;;;;;;88.47;50.08;;;;;;;1.56;53.69;95602.28;4174808;28;20638;-70
2024/02/01 07:13:47;;;;;;;86.07;49.85;;;;;;;1.58;53.32;95595.28;4172692;28;20052;-71
2024/02/01 07:15:52;;;;;;;87.55;51.53;;;;;;;1.36;53.79;95596.44;4178913;28;20041;-71
2024/02/01 07:18:14;;;;;;;94.68;53.65;;;;;;;1.14;54.34;95599.31;4186279;28;20100;-70
2024/02/01 07:20:35;;;;;;;85.88;53.13;;;;;;;0.95;55.36;95593.44;4189002;28;20048;-71
2024/02/01 07:23:00;;;;;;;91.63;52.03;;;;;;;0.89;55.55;95601.50;4189901;28;20044;-72
2024/02/01 07:25:10;;;;;;;88.32;51.85;;;;;;;0.91;56.08;95604.81;4185565;28;20203;-70
2024/02/01 07:57:58;;;;;;;86.20;49.88;;;;;;;0.74;55.05;95575.56;4182140;28;20802;-71
2024/02/01 08:00:01;;;;;;;89.20;50.05;;;;;;;0.71;55.02;95572.28;4170957;28;20163;-70
2024/02/01 08:02:23;;;;;;;83.65;50.38;;;;;;;0.94;54.95;95560.78;4170759;28;20408;-70
2024/02/01 08:07:44;;;;;;;75.93;48.05;;;;;;;1.03;54.41;95568.06;4175818;28;20052;-71
2024/02/01 08:09:11;;;;;;;83.00;49.08;;;;;;;1.25;53.55;95556.59;4177989;28;20102;-71
2024/02/01 08:11:17;;;;;;;87.22;52.17;;;;;;;1.38;53.49;95562.81;4174778;28;20144;-71
2024/02/01 08:13:24;;;;;;;80.15;50.50;;;;;;;1.55;53.44;95557.56;4174072;28;20084;-70
2024/02/01 08:15:26;;;;;;;85.68;48.47;;;;;;;1.56;53.14;95555.81;4164081;28;20137;-70
2024/02/01 08:17:29;;;;;;;79.88;47.25;;;;;;;1.53;51.77;95556.81;4169841;28;20163;-69
2024/02/01 08:19:31;;;;;;;84.10;47.90;;;;;;;1.53;51.97;95561.16;4170762;28;20523;-71
2024/02/01 08:21:42;;;;;;;80.18;48.38;;;;;;;1.75;51.10;95553.06;4168866;28;20053;-71
2024/02/01 08:23:44;;;;;;;79.65;46.45;;;;;;;1.86;51.04;95553.28;4171645;28;20061;-70
2024/02/01 08:25:50;;;;;;;74.35;45.63;;;;;;;1.86;50.81;95548.13;4190074;28;21084;-70
2024/02/01 08:35:38;;;;;;;71.10;41.40;;;;;;;1.95;50.13;95546.78;4170989;28;20110;-70
2024/02/01 08:37:44;;;;;;;75.78;40.92;;;;;;;2.10;49.72;95552.84;4154819;28;20136;-71
2024/02/01 08:39:52;;;;;;;68.22;43.47;;;;;;;1.95;49.12;95552.75;4132910;28;20170;-71
2024/02/01 08:42:06;;;;;;;67.10;41.10;;;;;;;2.07;49.14;95561.59;4146657;28;20101;-71
2024/02/01 08:44:08;;;;;;;67.78;44.35;;;;;;;2.02;48.96;95551.53;4178229;28;20053;-70
2024/02/01 08:46:11;;;;;;;89.10;50.97;;;;;;;2.08;49.73;95563.25;4147970;28;20046;-71
2024/02/01 08:48:13;;;;;;;100.37;53.93;;;;;;;2.09;50.15;95562.34;4179644;28;20049;-70
2024/02/01 08:50:15;;;;;;;82.45;52.22;;;;;;;2.17;50.02;95560.16;4182505;28;20080;-71
2024/02/01 08:52:17;;;;;;;98.47;52.13;;;;;;;2.34;49.58;95543.66;4180137;28;20095;-71
2024/02/01 08:54:20;;;;;;;99.75;56.28;;;;;;;2.48;49.68;95539.47;4179931;28;20514;-70
2024/02/01 08:56:22;;;;;;;101.20;54.55;;;;;;;2.77;49.32;95546.34;4177331;28;20152;-69
2024/02/01 08:58:24;;;;;;;84.10;53.28;;;;;;;2.78;48.84;95542.00;4179102;28;20060;-72
2024/02/01 09:00:26;;;;;;;115.63;59.38;;;;;;;2.80;48.79;95543.59;4175783;28;20052;-71
2024/02/01 09:02:28;;;;;;;86.97;50.13;;;;;;;2.77;48.47;95542.91;4183939;28;20504;-70
2024/02/01 09:04:31;;;;;;;81.00;48.33;;;;;;;2.93;47.99;95540.28;4165002;28;20285;-70
2024/02/01 09:06:33;;;;;;;78.22;48.83;;;;;;;3.09;48.13;95541.00;4162624;28;20046;-71
2024/02/01 09:08:36;;;;;;;76.95;48.90;;;;;;;3.21;47.21;95534.25;4183174;28;20049;-74
2024/02/01 09:10:50;;;;;;;91.15;52.03;;;;;;;3.13;47.26;95526.94;4182267;28;20053;-71
2024/02/01 09:12:53;;;;;;;67.60;42.20;;;;;;;3.09;46.99;95528.06;4158326;28;20073;-69
2024/02/01 09:14:55;;;;;;;92.40;51.38;;;;;;;3.23;47.08;95524.63;4152160;28;20608;-68
2024/02/01 09:16:58;;;;;;;81.28;47.38;;;;;;;3.41;46.19;95527.84;4177933;28;20049;-69
2024/02/01 09:19:00;;;;;;;83.80;48.22;;;;;;;3.38;46.57;95520.28;4188849;28;20454;-69
2024/02/01 09:21:03;;;;;;;81.70;47.33;;;;;;;3.45;47.07;95512.00;4160992;28;20060;-68
2024/02/01 09:23:10;;;;;;;71.82;44.40;;;;;;;3.42;47.07;95509.63;4175403;28;20274;-70
2024/02/01 09:25:12;;;;;;;70.47;46.03;;;;;;;3.66;45.93;95506.41;4175295;28;20321;-70
2024/02/01 09:27:15;;;;;;;77.50;46.30;;;;;;;3.90;45.13;95504.84;4184101;28;20090;-71
2024/02/01 09:29:17;;;;;;;86.05;46.42;;;;;;;3.97;45.89;95501.84;4185117;28;20464;-70
2024/02/01 09:31:18;;;;;;;77.30;49.58;;;;;;;3.66;46.55;95507.25;4157736;28;20103;-71
2024/02/01 09:33:28;;;;;;;80.43;49.75;;;;;;;3.80;45.89;95501.16;4186478;28;20048;-72
2024/02/01 09:35:30;;;;;;;80.45;48.28;;;;;;;3.59;46.05;95495.63;4155543;28;20065;-71
2024/02/01 09:37:32;;;;;;;72.75;47.92;;;;;;;3.43;46.74;95498.31;4177451;28;20045;-70
2024/02/01 09:39:37;;;;;;;70.60;46.90;;;;;;;3.48;46.58;95495.44;4158678;28;20835;-70
2024/02/01 09:41:40;;;;;;;86.47;50.13;;;;;;;3.69;46.49;95491.47;4174064;28;20080;-71
2024/02/01 09:43:53;;;;;;;82.00;50.25;;;;;;;3.92;45.99;95489.19;4166959;28;20139;-70
2024/02/01 09:45:56;;;;;;;78.47;50.40;;;;;;;4.10;45.69;95482.78;4147566;28;20046;-70
2024/02/01 09:47:58;;;;;;;86.72;50.10;;;;;;;4.37;45.84;95478.50;4179364;28;20045;-72
2024/02/01 09:50:01;;;;;;;78.22;50.50;;;;;;;4.33;45.49;95479.66;4161420;28;20049;-71
2024/02/01 09:52:03;;;;;;;90.78;50.35;;;;;;;4.47;44.70;95475.19;4165997;28;20057;-70
2024/02/01 09:54:11;;;;;;;67.10;45.85;;;;;;;4.74;44.98;95466.47;4157499;28;20056;-70
2024/02/01 09:56:14;;;;;;;69.32;43.20;;;;;;;5.04;43.04;95462.72;4177984;28;20044;-70
2024/02/01 09:58:20;;;;;;;62.33;45.38;;;;;;;5.33;42.05;95453.72;4176026;28;20053;-70
2024/02/01 10:00:23;;;;;;;77.38;46.90;;;;;;;5.47;41.75;95455.31;4177549;28;20053;-70
2024/02/01 10:02:30;;;;;;;70.93;45.72;;;;;;;5.63;41.32;95452.44;4179641;28;20549;-71
2024/02/01 10:04:33;;;;;;;74.25;45.88;;;;;;;5.70;40.92;95440.69;4185071;28;20467;-71
2024/02/01 10:06:37;;;;;;;81.10;47.50;;;;;;;5.45;41.56;95445.97;4176879;28;20140;-69
2024/02/01 10:08:40;;;;;;;68.88;43.88;;;;;;;5.36;41.62;95442.25;4160670;28;20050;-72
2024/02/01 10:10:45;;;;;;;71.13;44.70;;;;;;;5.49;41.75;95437.84;4182903;28;20049;-71
2024/02/01 10:12:47;;;;;;;75.63;45.45;;;;;;;5.79;40.93;95431.38;4164407;28;20053;-70
2024/02/01 10:14:50;;;;;;;70.93;46.35;;;;;;;6.09;40.87;95430.94;4174721;28;20048;-72
2024/02/01 10:16:52;;;;;;;64.70;44.07;;;;;;;6.45;39.88;95431.69;4173002;28;20558;-71
2024/02/01 10:19:08;;;;;;;71.47;45.88;;;;;;;6.54;39.40;95418.00;4162393;28;20049;-70